TimeMDT,TemperatureF,Dew PointF,Humidity,Sea Level PressureIn,VisibilityMPH,Wind Direction,Wind SpeedMPH,Gust SpeedMPH,PrecipitationIn,Events,Conditions,WindDirDegrees,DateUTC
12:53 AM,28.0,15.1,58,30.12,10.0,West,8.1,-,N/A,,Clear,270,2012-10-28 06:53:00
1:53 AM,27.0,15.1,61,30.11,10.0,West,3.5,-,N/A,,Clear,270,2012-10-28 07:53:00
2:53 AM,27.0,15.1,61,30.12,10.0,West,5.8,-,N/A,,Clear,260,2012-10-28 08:53:00
3:53 AM,28.9,16.0,58,30.09,10.0,West,9.2,-,N/A,,Clear,270,2012-10-28 09:53:00
4:53 AM,25.0,15.1,66,30.11,10.0,West,4.6,-,N/A,,Clear,260,2012-10-28 10:53:00
5:53 AM,24.1,15.1,69,30.14,10.0,West,9.2,-,N/A,,Clear,270,2012-10-28 11:53:00
6:53 AM,25.0,15.1,66,30.17,10.0,West,9.2,-,N/A,,Clear,280,2012-10-28 12:53:00
7:53 AM,25.0,15.1,66,30.21,10.0,West,8.1,-,N/A,,Clear,280,2012-10-28 13:53:00
8:53 AM,30.9,17.1,57,30.22,10.0,West,5.8,-,N/A,,Clear,280,2012-10-28 14:53:00
9:53 AM,43.0,17.1,35,30.17,10.0,Calm,Calm,-,N/A,,Clear,0,2012-10-28 15:53:00
10:53 AM,50.0,17.1,27,30.14,10.0,Calm,Calm,-,N/A,,Clear,0,2012-10-28 16:53:00
11:53 AM,54.0,14.0,21,30.13,10.0,Calm,Calm,-,N/A,,Clear,0,2012-10-28 17:53:00
1:53 PM,57.0,17.1,21,30.09,10.0,SE,9.2,-,N/A,,Clear,140,2012-10-28 19:53:00
2:53 PM,57.9,16.0,19,30.06,10.0,SSE,10.4,-,N/A,,Clear,160,2012-10-28 20:53:00
3:53 PM,57.9,16.0,19,30.04,10.0,SSE,10.4,-,N/A,,Clear,150,2012-10-28 21:53:00
4:53 PM,57.9,15.1,19,30.06,10.0,SE,11.5,-,N/A,,Clear,140,2012-10-28 22:53:00
5:53 PM,55.0,15.1,21,30.09,10.0,SSE,11.5,-,N/A,,Clear,150,2012-10-28 23:53:00
6:53 PM,45.0,15.1,30,30.15,10.0,Variable,3.5,-,N/A,,Clear,0,2012-10-29 00:53:00
7:53 PM,37.9,15.1,39,30.20,10.0,Calm,Calm,-,N/A,,Clear,0,2012-10-29 01:53:00
8:53 PM,34.0,16.0,48,30.19,10.0,WSW,5.8,-,N/A,,Clear,250,2012-10-29 02:53:00
9:53 PM,30.9,16.0,54,30.17,10.0,WSW,5.8,-,N/A,,Clear,250,2012-10-29 03:53:00
10:53 PM,30.9,16.0,54,30.14,10.0,West,5.8,-,N/A,,Clear,260,2012-10-29 04:53:00
11:53 PM,32.0,17.1,54,30.13,10.0,West,8.1,-,N/A,,Clear,270,2012-10-29 05:53:00